createdAt,value
2023-04-22T00:00:26.854Z,9.10
2023-04-22T00:05:30.425Z,9.00
2023-04-22T00:10:33.794Z,9.00
2023-04-22T00:15:39.153Z,9.00
2023-04-22T00:20:45.761Z,8.80
2023-04-22T00:25:49.435Z,8.80
2023-04-22T00:30:54.219Z,8.70
2023-04-22T00:35:58.085Z,8.70
2023-04-22T00:41:02.237Z,8.70
2023-04-22T00:46:07.394Z,8.40
2023-04-22T00:51:11.668Z,8.40
2023-04-22T00:56:16.262Z,8.30
2023-04-22T01:01:22.856Z,8.20
2023-04-22T01:06:29.723Z,8.30
2023-04-22T01:11:34.156Z,8.20
2023-04-22T01:16:41.130Z,8.20
2023-04-22T01:21:47.237Z,8.20
2023-04-22T01:26:52.236Z,8.10
2023-04-22T01:31:56.095Z,8.10
2023-04-22T01:36:59.763Z,8.30
2023-04-22T01:42:05.121Z,8.30
2023-04-22T01:47:08.478Z,8.40
2023-04-22T01:52:12.737Z,8.20
2023-04-22T01:57:18.185Z,8.20
2023-04-22T02:02:21.611Z,8.20
2023-04-22T02:07:25.938Z,8.10
2023-04-22T02:12:31.525Z,8.20
2023-04-22T02:17:35.922Z,8.20
2023-04-22T02:22:42.100Z,8.10
2023-04-22T02:27:46.702Z,8.20
2023-04-22T02:32:50.645Z,8.20
2023-04-22T02:37:55.541Z,8.10
2023-04-22T02:43:03.958Z,8.20
2023-04-22T02:48:07.297Z,8.20
2023-04-22T02:53:10.968Z,8.30
2023-04-22T02:58:15.878Z,8.20
2023-04-22T03:03:19.613Z,8.20
2023-04-22T03:08:24.021Z,8.20
2023-04-22T03:13:28.998Z,8.10
2023-04-22T03:18:32.788Z,8.20
2023-04-22T03:23:37.375Z,8.20
2023-04-22T03:28:43.280Z,8.10
2023-04-22T03:33:46.789Z,8.20
2023-04-22T03:39:00.055Z,8.10
2023-04-22T03:44:06.288Z,8.20
2023-04-22T03:49:12.282Z,8.00
2023-04-22T03:54:15.896Z,8.10
2023-04-22T03:59:27.791Z,7.90
2023-04-22T04:04:32.724Z,7.90
2023-04-22T04:09:38.226Z,8.10
2023-04-22T04:14:44.625Z,8.10
2023-04-22T04:19:51.966Z,8.10
2023-04-22T04:24:56.072Z,8.20
2023-04-22T04:30:07.400Z,8.20
2023-04-22T04:35:18.408Z,8.40
2023-04-22T04:40:29.245Z,8.50
2023-04-22T04:45:48.913Z,8.60
2023-04-22T04:50:55.626Z,8.70
2023-04-22T04:56:02.415Z,8.90
2023-04-22T05:01:08.035Z,9.10
2023-04-22T05:06:12.679Z,9.40
2023-04-22T05:11:19.769Z,9.60
2023-04-22T05:16:27.440Z,9.70
2023-04-22T05:21:31.524Z,10.00
2023-04-22T05:26:37.443Z,10.20
2023-04-22T05:31:51.258Z,10.90
2023-04-22T05:36:55.066Z,11.30
2023-04-22T05:41:59.345Z,11.50
2023-04-22T05:47:04.334Z,11.80
2023-04-22T05:52:07.795Z,11.90
2023-04-22T05:57:23.983Z,12.50
2023-04-22T06:02:29.372Z,12.90
2023-04-22T06:07:33.807Z,14.60
2023-04-22T06:12:37.346Z,17.10
2023-04-22T06:17:44.221Z,18.90
2023-04-22T06:22:47.631Z,19.40
2023-04-22T06:27:50.977Z,20.70
2023-04-22T06:32:58.290Z,20.60
2023-04-22T06:38:03.141Z,20.90
2023-04-22T06:43:13.462Z,21.90
2023-04-22T06:48:40.413Z,21.40
2023-04-22T06:53:53.213Z,21.50
2023-04-22T06:58:57.045Z,21.30
2023-04-22T07:04:02.435Z,21.60
2023-04-22T07:09:06.504Z,21.60
2023-04-22T07:14:10.594Z,21.70
2023-04-22T07:19:15.362Z,22.50
2023-04-22T07:24:18.910Z,23.10
2023-04-22T07:29:23.686Z,22.70
2023-04-22T07:34:29.228Z,23.80
2023-04-22T07:39:32.703Z,23.70
2023-04-22T07:44:38.171Z,23.80
2023-04-22T07:49:45.485Z,22.80
2023-04-22T07:54:49.753Z,23.50
2023-04-22T07:59:53.277Z,24.00
2023-04-22T08:04:58.254Z,23.80
2023-04-22T08:10:02.320Z,23.80
2023-04-22T08:15:06.935Z,24.50
2023-04-22T08:20:16.187Z,24.50
2023-04-22T08:25:19.632Z,24.80
2023-04-22T08:30:22.978Z,25.00
2023-04-22T08:35:27.759Z,25.00
2023-04-22T08:40:30.948Z,24.40
2023-04-22T08:45:34.642Z,25.10
2023-04-22T08:50:39.921Z,26.00
2023-04-22T08:55:44.850Z,24.60
2023-04-22T09:00:49.532Z,24.90
2023-04-22T09:05:55.458Z,25.30
2023-04-22T09:10:59.771Z,26.10
2023-04-22T09:16:03.113Z,26.40
2023-04-22T09:21:09.264Z,27.50
2023-04-22T09:26:15.023Z,26.80
2023-04-22T09:31:19.176Z,26.70
2023-04-22T09:36:27.493Z,27.30
2023-04-22T09:41:31.940Z,27.80
2023-04-22T09:46:35.634Z,27.80
2023-04-22T09:51:44.478Z,28.50
2023-04-22T09:56:49.834Z,28.80
2023-04-22T10:01:55.415Z,28.50
2023-04-22T10:07:03.733Z,28.30
2023-04-22T10:12:07.247Z,28.60
2023-04-22T10:17:12.762Z,27.70
2023-04-22T10:22:17.851Z,28.00
2023-04-22T10:27:22.776Z,27.80
2023-04-22T10:32:27.756Z,28.00
2023-04-22T10:37:33.714Z,28.10
2023-04-22T10:42:39.192Z,27.80
2023-04-22T10:47:42.732Z,26.60
2023-04-22T10:52:50.733Z,27.00
2023-04-22T10:57:54.157Z,27.20
2023-04-22T11:03:15.436Z,27.10
2023-04-22T11:08:21.046Z,26.60
2023-04-22T11:13:24.507Z,26.50
2023-04-22T11:18:27.870Z,26.90
2023-04-22T11:23:32.642Z,26.40
2023-04-22T11:28:45.887Z,26.90
2023-04-22T11:33:50.419Z,26.50
2023-04-22T11:38:56.476Z,27.30
2023-04-22T11:44:00.674Z,27.10
2023-04-22T11:49:14.188Z,26.70
2023-04-22T11:54:31.413Z,26.90
2023-04-22T11:59:35.220Z,28.10
2023-04-22T12:04:39.391Z,27.80
2023-04-22T12:09:45.462Z,27.40
2023-04-22T12:14:48.864Z,27.20
2023-04-22T12:19:55.723Z,27.40
2023-04-22T12:25:01.004Z,26.90
2023-04-22T12:30:06.821Z,26.60
2023-04-22T12:35:11.007Z,27.50
2023-04-22T12:40:15.668Z,27.50
2023-04-22T12:45:19.496Z,28.40
2023-04-22T12:52:24.114Z,27.60
2023-04-22T12:57:28.091Z,27.20
2023-04-22T13:02:31.947Z,26.90
2023-04-22T13:07:36.865Z,27.40
2023-04-22T13:12:40.728Z,26.40
2023-04-22T13:17:46.679Z,26.40
2023-04-22T13:22:53.653Z,26.90
2023-04-22T13:27:57.677Z,27.00
2023-04-22T13:33:01.233Z,26.30
2023-04-22T13:38:07.262Z,26.40
2023-04-22T13:43:11.786Z,26.80
2023-04-22T13:48:16.125Z,26.50
2023-04-22T13:53:23.744Z,25.50
2023-04-22T13:58:27.763Z,25.50
2023-04-22T14:03:31.411Z,25.40
2023-04-22T14:08:37.713Z,25.50
2023-04-22T14:13:41.077Z,25.40
2023-04-22T14:18:45.753Z,25.80
2023-04-22T14:23:51.464Z,25.70
2023-04-22T14:28:55.496Z,25.90
2023-04-22T14:33:58.865Z,25.90
2023-04-22T14:39:04.655Z,25.70
2023-04-22T14:44:07.970Z,25.50
2023-04-22T14:49:11.699Z,26.00
2023-04-22T14:54:16.338Z,25.70
2023-04-22T14:59:19.704Z,26.10
2023-04-22T15:04:24.198Z,26.20
2023-04-22T15:09:29.016Z,25.90
2023-04-22T15:14:35.501Z,26.10
2023-04-22T15:19:39.375Z,26.10
2023-04-22T15:24:45.036Z,25.70
2023-04-22T15:29:48.373Z,25.50
2023-04-22T15:34:51.793Z,25.20
2023-04-22T15:39:56.564Z,25.30
2023-04-22T15:45:00.297Z,25.20
2023-04-22T15:50:09.450Z,25.50
2023-04-22T15:55:14.642Z,25.10
2023-04-22T16:00:18.673Z,25.20
2023-04-22T16:05:24.583Z,25.40
2023-04-22T16:10:29.605Z,25.60
2023-04-22T16:15:33.105Z,24.80
2023-04-22T16:20:36.424Z,24.90
2023-04-22T16:25:41.234Z,24.90
2023-04-22T16:30:44.701Z,24.60
2023-04-22T16:35:48.077Z,24.10
2023-04-22T16:40:54.350Z,23.70
2023-04-22T16:45:58.135Z,23.00
2023-04-22T16:51:01.633Z,22.40
2023-04-22T16:56:07.056Z,22.00
2023-04-22T17:01:11.030Z,21.90
2023-04-22T17:06:16.079Z,21.70
2023-04-22T17:11:20.767Z,21.20
2023-04-22T17:16:24.336Z,20.80
2023-04-22T17:21:28.797Z,20.30
2023-04-22T17:26:34.244Z,19.80
2023-04-22T17:31:37.829Z,19.50
2023-04-22T17:36:41.495Z,19.40
2023-04-22T17:41:47.492Z,19.00
